Time;durP1;ratioP1;P1;durP2;ratioP2;P2;SDS_P1;SDS_P2;PMS_P1;PMS_P2;Temp;Humidity;BMP_temperature;BMP_pressure;BME280_temperature;BME280_humidity;BME280_pressure;Samples;Min_cycle;Max_cycle;Signal;HPM_P1;HPM_P2
2023/08/21 00:01:40;;;;;;;;;;;;;;;17.85;43.44;100717.16;5081717;28;1249;-53
2023/08/21 00:04:05;;;;;;;;;;;;;;;17.74;43.69;100710.88;5099370;28;885;-53
2023/08/21 00:06:31;;;;;;;;;;;;;;;17.78;43.45;100712.81;5099005;28;1140;-54
2023/08/21 00:08:56;;;;;;;;;;;;;;;17.81;43.46;100710.59;5099267;28;994;-50
2023/08/21 00:11:22;;;;;;;;;;;;;;;17.57;44.06;100717.59;5098395;28;1905;-53
2023/08/21 00:13:49;;;;;;;;;;;;;;;17.74;43.68;100710.88;5098666;28;1579;-50
2023/08/21 00:16:16;;;;;;;;;;;;;;;17.60;43.84;100716.22;5094250;28;1558;-53
2023/08/21 00:18:42;;;;;;;;;;;;;;;17.61;43.95;100710.41;5098876;28;876;-53
2023/08/21 00:21:07;;;;;;;;;;;;;;;17.71;43.70;100723.28;5099017;28;1042;-53
2023/08/21 00:23:33;;;;;;;;;;;;;;;17.72;43.82;100719.41;5098750;28;990;-53
2023/08/21 00:25:58;;;;;;;;;;;;;;;17.70;43.78;100726.34;5098944;28;1102;-52
2023/08/21 00:28:24;;;;;;;;;;;;;;;17.68;43.62;100712.03;5099076;28;1158;-53
2023/08/21 00:30:49;;;;;;;;;;;;;;;17.61;43.82;100718.66;5097969;28;1913;-53
2023/08/21 00:33:15;;;;;;;;;;;;;;;17.57;44.04;100722.25;5081233;28;1193;-53
2023/08/21 00:35:41;;;;;;;;;;;;;;;17.58;43.87;100718.41;5080816;28;1137;-51
2023/08/21 00:38:07;;;;;;;;;;;;;;;17.72;43.75;100716.66;5098710;28;1045;-53
2023/08/21 00:40:33;;;;;;;;;;;;;;;17.60;43.87;100716.22;5098651;28;1053;-51
2023/08/21 00:42:59;;;;;;;;;;;;;;;17.61;43.65;100723.31;5080465;28;1310;-53
2023/08/21 00:45:26;;;;;;;;;;;;;;;17.62;43.68;100714.78;5097892;28;1118;-53
2023/08/21 00:47:51;;;;;;;;;;;;;;;17.60;43.80;100716.22;5098984;28;1063;-51
2023/08/21 00:50:17;;;;;;;;;;;;;;;17.60;43.62;100717.00;5080138;28;1972;-53
2023/08/21 00:52:43;;;;;;;;;;;;;;;17.63;43.61;100710.13;5098280;28;1200;-53
2023/08/21 00:55:08;;;;;;;;;;;;;;;17.50;43.90;100719.81;5098393;28;1113;-52
2023/08/21 00:57:34;;;;;;;;;;;;;;;17.61;43.56;100715.06;5098441;28;1121;-53
2023/08/21 01:00:00;;;;;;;;;;;;;;;17.56;43.59;100720.63;5079660;28;1046;-53
2023/08/21 01:02:25;;;;;;;;;;;;;;;17.58;43.84;100723.91;5098316;28;1049;-52
2023/08/21 01:04:51;;;;;;;;;;;;;;;17.61;43.58;100723.31;5079845;28;1142;-50
2023/08/21 01:07:17;;;;;;;;;;;;;;;17.61;43.63;100723.31;5097956;28;1280;-52
2023/08/21 01:10:11;;;;;;;;;;;;;;;17.56;43.85;100720.63;5098297;28;1910;-53
2023/08/21 01:12:41;;;;;;;;;;;;;;;17.59;43.78;100723.63;5066333;28;1226;-53
2023/08/21 01:15:07;;;;;;;;;;;;;;;17.56;43.88;100721.44;5079965;28;1145;-53
2023/08/21 01:17:36;;;;;;;;;;;;;;;17.58;43.51;100729.41;5098078;28;1149;-53
2023/08/21 01:20:02;;;;;;;;;;;;;;;17.58;43.48;100723.91;5097637;28;892;-54
2023/08/21 01:22:29;;;;;;;;;;;;;;;17.54;43.84;100717.31;5097528;28;1183;-53
2023/08/21 01:24:54;;;;;;;;;;;;;;;17.55;43.59;100710.72;5079770;28;1321;-53
2023/08/21 01:27:21;;;;;;;;;;;;;;;17.56;43.67;100720.63;5079748;28;1113;-53
2023/08/21 01:29:46;;;;;;;;;;;;;;;17.48;44.00;100718.44;5079416;28;1909;-53
2023/08/21 01:32:12;;;;;;;;;;;;;;;17.51;43.82;100715.13;5079681;28;1003;-54
2023/08/21 01:34:37;;;;;;;;;;;;;;;17.52;43.70;100714.84;5097546;28;1065;-54
2023/08/21 01:37:03;;;;;;;;;;;;;;;17.48;43.60;100713.75;5079518;28;1123;-53
2023/08/21 01:39:28;;;;;;;;;;;;;;;17.46;43.99;100724.22;5079789;28;1157;-53
2023/08/21 01:41:56;;;;;;;;;;;;;;;17.49;43.71;100720.06;5079668;28;1137;-53
2023/08/21 01:44:21;;;;;;;;;;;;;;;17.51;43.90;100723.38;5096993;28;1050;-54
2023/08/21 01:46:46;;;;;;;;;;;;;;;17.54;43.74;100717.31;5097779;28;1090;-52
2023/08/21 01:49:12;;;;;;;;;;;;;;;17.55;43.89;100716.22;5092054;28;1141;-54
2023/08/21 01:51:38;;;;;;;;;;;;;;;17.52;43.72;100714.84;5089149;28;1902;-54
2023/08/21 01:54:03;;;;;;;;;;;;;;;17.52;43.97;100714.84;5096628;28;1078;-53
2023/08/21 01:56:29;;;;;;;;;;;;;;;17.57;43.71;100717.59;5096385;28;1074;-54
2023/08/21 01:58:54;;;;;;;;;;;;;;;17.56;43.90;100723.38;5079055;28;1094;-53
2023/08/21 02:01:20;;;;;;;;;;;;;;;17.37;44.24;100729.47;5079275;28;1090;-53
2023/08/21 02:03:45;;;;;;;;;;;;;;;17.47;43.95;100723.09;5078948;28;1306;-52
2023/08/21 02:06:11;;;;;;;;;;;;;;;17.51;43.93;100723.38;5078609;28;1181;-54
2023/08/21 02:08:38;;;;;;;;;;;;;;;17.49;44.08;100723.66;5097309;28;1051;-54
2023/08/21 02:11:03;;;;;;;;;;;;;;;17.51;43.81;100724.19;5078585;28;1975;-54
2023/08/21 02:13:29;;;;;;;;;;;;;;;17.44;43.95;100719.00;5096932;28;1186;-53
2023/08/21 02:15:54;;;;;;;;;;;;;;;17.43;43.87;100722.03;5078700;28;1334;-54
2023/08/21 02:18:20;;;;;;;;;;;;;;;17.55;43.77;100718.97;5096841;28;1137;-53
2023/08/21 02:20:46;;;;;;;;;;;;;;;17.53;43.69;100718.41;5096629;28;1046;-54
2023/08/21 02:23:12;;;;;;;;;;;;;;;17.57;43.55;100714.00;5096955;28;1095;-53
2023/08/21 02:25:37;;;;;;;;;;;;;;;17.33;44.20;100714.63;5078534;28;1352;-53
2023/08/21 02:28:04;;;;;;;;;;;;;;;17.41;43.89;100713.25;5078455;28;1177;-54
2023/08/21 02:30:29;;;;;;;;;;;;;;;17.44;44.01;100718.19;5096577;28;1969;-54
2023/08/21 02:32:56;;;;;;;;;;;;;;;17.41;43.90;100722.31;5096594;28;1079;-54
2023/08/21 02:35:21;;;;;;;;;;;;;;;17.52;43.71;100725.84;5078267;28;1620;-54
2023/08/21 02:37:48;;;;;;;;;;;;;;;17.43;43.83;100724.78;5096551;28;1062;-52
2023/08/21 02:40:14;;;;;;;;;;;;;;;17.40;44.05;100717.94;5096707;28;1078;-51
2023/08/21 02:42:39;;;;;;;;;;;;;;;17.51;43.82;100718.69;5095937;28;1083;-53
2023/08/21 02:45:08;;;;;;;;;;;;;;;17.44;43.78;100713.50;5096788;28;1116;-53
2023/08/21 02:47:36;;;;;;;;;;;;;;;17.49;43.92;100717.31;5078480;28;1272;-52
2023/08/21 02:50:03;;;;;;;;;;;;;;;17.39;44.10;100710.78;5096398;28;1979;-53
2023/08/21 02:52:28;;;;;;;;;;;;;;;17.38;44.14;100713.81;5078251;28;1141;-53
2023/08/21 02:54:54;;;;;;;;;;;;;;;17.39;43.96;100705.28;5096215;28;1039;-53
2023/08/21 02:57:19;;;;;;;;;;;;;;;17.41;43.83;100708.56;5096017;28;1089;-52
2023/08/21 02:59:46;;;;;;;;;;;;;;;17.48;43.76;100722.00;5078544;28;1170;-56
2023/08/21 03:02:12;;;;;;;;;;;;;;;17.44;44.01;100724.50;5078258;28;1340;-56
2023/08/21 03:04:37;;;;;;;;;;;;;;;17.46;43.96;100726.97;5075249;28;1305;-60
2023/08/21 03:07:05;;;;;;;;;;;;;;;17.43;43.91;100719.28;5094606;28;2475;-54
2023/08/21 03:09:30;;;;;;;;;;;;;;;17.32;43.97;100724.00;5082027;28;2240;-61
2023/08/21 03:11:56;;;;;;;;;;;;;;;17.38;43.97;100725.63;5099183;28;2105;-60
2023/08/21 03:14:21;;;;;;;;;;;;;;;17.36;44.15;100722.34;5099896;28;2000;-59
2023/08/21 03:16:47;;;;;;;;;;;;;;;17.38;44.06;100725.63;5080612;28;1975;-60
2023/08/21 03:19:12;;;;;;;;;;;;;;;17.39;44.00;100730.03;5078478;28;2121;-56
2023/08/21 03:21:38;;;;;;;;;;;;;;;17.35;43.96;100728.94;5099309;28;1966;-58
2023/08/21 03:24:05;;;;;;;;;;;;;;;17.42;44.02;100734.94;5093385;28;1558;-55
2023/08/21 03:26:31;;;;;;;;;;;;;;;17.43;44.18;100736.59;5097652;28;1143;-54
2023/08/21 03:28:57;;;;;;;;;;;;;;;17.43;44.14;100739.34;5100090;28;1118;-55
2023/08/21 03:31:22;;;;;;;;;;;;;;;17.40;44.06;100734.44;5098854;28;1910;-55
2023/08/21 03:33:48;;;;;;;;;;;;;;;17.41;44.06;100740.72;5087993;28;1173;-56
2023/08/21 03:36:15;;;;;;;;;;;;;;;17.43;44.02;100744.84;5098358;28;956;-55
2023/08/21 03:38:40;;;;;;;;;;;;;;;17.43;44.11;100742.09;5099748;28;1355;-53
2023/08/21 03:41:07;;;;;;;;;;;;;;;17.44;44.09;100738.22;5081464;28;1316;-55
2023/08/21 03:43:33;;;;;;;;;;;;;;;17.46;44.06;100743.47;5080985;28;1102;-57
2023/08/21 03:45:59;;;;;;;;;;;;;;;17.43;44.11;100739.34;5095690;28;1276;-58
2023/08/21 03:48:25;;;;;;;;;;;;;;;17.47;44.01;100749.78;5080808;28;1327;-56
2023/08/21 03:50:50;;;;;;;;;;;;;;;17.43;44.20;100749.50;5080910;28;1980;-54
2023/08/21 03:53:17;;;;;;;;;;;;;;;17.49;43.98;100751.16;5071082;28;1833;-59
2023/08/21 03:55:43;;;;;;;;;;;;;;;17.48;44.60;100752.25;5077007;28;1113;-55
2023/08/21 03:58:08;;;;;;;;;;;;;;;17.39;44.99;100759.41;5099132;28;1334;-56
2023/08/21 04:00:34;;;;;;;;;;;;;;;17.40;44.50;100750.91;5081310;28;1617;-51
2023/08/21 04:02:59;;;;;;;;;;;;;;;17.48;44.49;100754.19;5098591;28;1311;-58
2023/08/21 04:05:26;;;;;;;;;;;;;;;17.35;44.70;100764.66;5081085;28;1217;-58
2023/08/21 04:07:52;;;;;;;;;;;;;;;17.47;44.14;100756.09;5085469;28;1111;-58
2023/08/21 04:10:18;;;;;;;;;;;;;;;17.45;44.40;100763.81;5087553;28;1897;-56
2023/08/21 04:12:44;;;;;;;;;;;;;;;17.34;44.55;100757.50;5096724;28;1292;-58
2023/08/21 04:15:09;;;;;;;;;;;;;;;17.39;44.42;100754.75;5097510;28;1149;-58
2023/08/21 04:17:35;;;;;;;;;;;;;;;17.40;44.25;100750.91;5079262;28;1007;-58
2023/08/21 04:20:01;;;;;;;;;;;;;;;17.45;44.36;100756.38;5097364;28;983;-56
2023/08/21 04:22:26;;;;;;;;;;;;;;;17.42;44.47;100758.88;5093618;28;1919;-52
2023/08/21 04:24:52;;;;;;;;;;;;;;;17.42;44.32;100765.19;5098205;28;1075;-54
2023/08/21 04:27:17;;;;;;;;;;;;;;;17.51;44.31;100753.63;5080195;28;1514;-51
2023/08/21 04:29:43;;;;;;;;;;;;;;;17.47;44.20;100755.28;5084460;28;1130;-53
2023/08/21 04:32:08;;;;;;;;;;;;;;;17.42;44.55;100759.69;5076153;28;2326;-56
2023/08/21 04:34:34;;;;;;;;;;;;;;;17.49;44.45;100758.56;5080169;28;1383;-53
2023/08/21 04:37:00;;;;;;;;;;;;;;;17.43;44.31;100763.25;5098240;28;1252;-56
2023/08/21 04:39:25;;;;;;;;;;;;;;;17.48;44.40;100767.94;5080557;28;1276;-56
2023/08/21 04:41:52;;;;;;;;;;;;;;;17.42;44.57;100767.94;5080126;28;1171;-56
2023/08/21 04:44:18;;;;;;;;;;;;;;;17.51;44.40;100772.88;5063195;28;1118;-55
2023/08/21 04:46:47;;;;;;;;;;;;;;;18.70;43.21;100773.88;5080086;28;1217;-55
2023/08/21 04:49:13;;;;;;;;;;;;;;;18.32;44.80;100779.09;5098239;28;1010;-53
2023/08/21 04:51:38;;;;;;;;;;;;;;;18.20;45.21;100778.63;5079586;28;2466;-55
2023/08/21 04:54:04;;;;;;;;;;;;;;;18.06;45.80;100776.50;5079224;28;1150;-55
2023/08/21 04:56:30;;;;;;;;;;;;;;;18.05;45.98;100761.09;5070098;28;1317;-54
2023/08/21 04:58:56;;;;;;;;;;;;;;;17.99;46.62;100766.91;5079227;28;1374;-55
2023/08/21 05:01:24;;;;;;;;;;;;;;;17.97;46.99;100774.63;5066992;28;1430;-51
2023/08/21 05:03:50;;;;;;;;;;;;;;;17.90;47.13;100780.41;5079021;28;1362;-57
2023/08/21 05:06:17;;;;;;;;;;;;;;;17.93;47.23;100774.38;5079705;28;1259;-56
2023/08/21 05:08:43;;;;;;;;;;;;;;;17.83;47.76;100779.91;5077115;28;963;-54
2023/08/21 05:11:10;;;;;;;;;;;;;;;17.83;47.88;100768.91;5079936;28;1971;-57
2023/08/21 05:13:37;;;;;;;;;;;;;;;17.79;48.37;100769.47;5079590;28;1259;-56
2023/08/21 05:16:04;;;;;;;;;;;;;;;17.79;48.54;100769.47;5078921;28;1857;-57
2023/08/21 05:18:34;;;;;;;;;;;;;;;17.81;48.74;100774.69;5079508;28;1577;-54
2023/08/21 05:21:00;;;;;;;;;;;;;;;17.72;48.93;100763.44;5097078;28;1209;-54
2023/08/21 05:23:26;;;;;;;;;;;;;;;17.89;49.56;100778.75;5076632;28;2677;-55
2023/08/21 05:25:57;;;;;;;;;;;;;;;17.64;50.34;100776.94;5078819;28;1341;-47
2023/08/21 05:28:22;;;;;;;;;;;;;;;17.59;50.75;100780.53;5097450;28;1122;-54
2023/08/21 05:30:51;;;;;;;;;;;;;;;17.55;50.63;100780.25;5078431;28;1910;-55
2023/08/21 05:33:18;;;;;;;;;;;;;;;17.53;50.69;100776.97;5074814;28;1324;-54
2023/08/21 05:35:45;;;;;;;;;;;;;;;17.56;50.62;100778.34;5078946;28;2152;-53
2023/08/21 05:38:10;;;;;;;;;;;;;;;17.56;50.60;100781.09;5076016;28;1324;-56
2023/08/21 05:40:36;;;;;;;;;;;;;;;17.61;50.57;100778.31;5096196;28;916;-50
2023/08/21 05:43:02;;;;;;;;;;;;;;;17.60;50.72;100777.50;5071174;28;1325;-53
2023/08/21 05:45:27;;;;;;;;;;;;;;;17.55;50.75;100785.75;5072199;28;1364;-52
2023/08/21 05:47:54;;;;;;;;;;;;;;;17.60;50.80;100776.69;5065197;28;1155;-53
2023/08/21 05:50:20;;;;;;;;;;;;;;;17.61;50.67;100772.81;5062678;28;1898;-49
2023/08/21 05:52:45;;;;;;;;;;;;;;;17.61;50.62;100784.66;5085028;28;1960;-50
2023/08/21 05:55:11;;;;;;;;;;;;;;;17.67;50.87;100790.97;5079022;28;1150;-50
2023/08/21 05:57:37;;;;;;;;;;;;;;;17.64;50.81;100787.94;5096333;28;1054;-50
2023/08/21 06:00:05;;;;;;;;;;;;;;;17.64;50.88;100780.50;5078526;28;1284;-49
2023/08/21 06:02:41;;;;;;;;;;;;;;;17.65;50.83;100784.09;5083561;28;971;-47
2023/08/21 06:05:09;;;;;;;;;;;;;;;17.68;50.90;100795.34;5072585;28;1436;-49
2023/08/21 06:07:34;;;;;;;;;;;;;;;17.79;51.67;100796.97;5076385;28;1174;-53
2023/08/21 06:10:00;;;;;;;;;;;;;;;17.84;51.96;100795.28;5073484;28;1971;-52
2023/08/21 06:12:26;;;;;;;;;;;;;;;17.92;52.55;100789.22;5095578;28;1394;-50
2023/08/21 06:14:53;;;;;;;;;;;;;;;17.82;52.66;100792.00;5064924;28;1594;-47
2023/08/21 06:17:19;;;;;;;;;;;;;;;17.83;52.59;100802.72;5077681;28;1131;-50
2023/08/21 06:19:44;;;;;;;;;;;;;;;17.77;52.65;100809.34;5076810;28;1900;-46
2023/08/21 06:22:10;;;;;;;;;;;;;;;17.72;52.76;100812.94;5065473;28;1792;-47
2023/08/21 06:24:36;;;;;;;;;;;;;;;17.79;52.53;100807.97;5085364;28;1031;-46
2023/08/21 06:27:04;;;;;;;;;;;;;;;17.77;52.66;100807.41;5058487;28;1148;-47
2023/08/21 06:29:29;;;;;;;;;;;;;;;17.76;52.49;100807.69;5092278;28;1149;-50
2023/08/21 06:31:55;;;;;;;;;;;;;;;17.78;52.54;100810.97;5091537;28;1972;-48
2023/08/21 06:34:22;;;;;;;;;;;;;;;17.72;52.64;100807.44;5076683;28;1244;-51
2023/08/21 06:36:47;;;;;;;;;;;;;;;17.76;52.50;100804.94;5091511;28;1260;-51
2023/08/21 06:39:13;;;;;;;;;;;;;;;17.75;52.66;100817.88;5057298;28;1107;-49
2023/08/21 06:41:38;;;;;;;;;;;;;;;17.82;52.32;100805.75;5090863;28;1166;-53
2023/08/21 06:44:04;;;;;;;;;;;;;;;17.82;52.61;100806.56;5091603;28;1064;-54
2023/08/21 06:46:30;;;;;;;;;;;;;;;17.82;52.74;100811.25;5068750;28;1222;-51
2023/08/21 06:48:56;;;;;;;;;;;;;;;17.83;52.68;100808.22;5074169;28;1577;-52
2023/08/21 06:51:21;;;;;;;;;;;;;;;17.81;52.68;100804.94;5057358;28;1969;-51
2023/08/21 06:53:47;;;;;;;;;;;;;;;17.82;52.74;100816.75;5088294;28;1832;-53
2023/08/21 06:56:12;;;;;;;;;;;;;;;17.84;52.54;100823.63;5084461;28;1003;-51
2023/08/21 06:58:38;;;;;;;;;;;;;;;17.84;52.70;100820.88;5088769;28;983;-52
2023/08/21 07:01:03;;;;;;;;;;;;;;;17.85;52.61;100824.44;5091054;28;1166;-52
2023/08/21 07:03:28;;;;;;;;;;;;;;;17.85;52.68;100825.28;5087097;28;1091;-54
2023/08/21 07:05:57;;;;;;;;;;;;;;;17.85;52.70;100821.69;5094721;28;1467;-51
2023/08/21 07:08:23;;;;;;;;;;;;;;;17.84;52.86;100822.78;5094850;28;1074;-51
2023/08/21 07:10:49;;;;;;;;;;;;;;;17.84;52.85;100825.53;5083136;28;1910;-52
2023/08/21 07:13:14;;;;;;;;;;;;;;;17.84;52.95;100826.38;5083397;28;1252;-52
2023/08/21 07:15:40;;;;;;;;;;;;;;;17.87;52.81;100825.00;5095427;28;1162;-51
2023/08/21 07:18:05;;;;;;;;;;;;;;;17.94;52.61;100828.28;5083856;28;1033;-51
2023/08/21 07:20:31;;;;;;;;;;;;;;;17.87;52.91;100825.00;5095066;28;1046;-48
2023/08/21 07:22:57;;;;;;;;;;;;;;;17.92;52.86;100822.22;5092771;28;1914;-54
2023/08/21 07:25:24;;;;;;;;;;;;;;;17.93;53.03;100823.88;5082588;28;1034;-50
2023/08/21 07:27:50;;;;;;;;;;;;;;;17.92;53.05;100819.47;5087974;28;913;-62
2023/08/21 07:30:16;;;;;;;;;;;;;;;17.92;53.03;100820.31;5094103;28;1909;-62
2023/08/21 07:32:41;;;;;;;;;;;;;;;17.92;53.11;100822.22;5092205;28;1169;-64
2023/08/21 07:35:07;;;;;;;;;;;;;;;17.97;52.98;100816.72;5094423;28;1324;-61
2023/08/21 07:37:32;;;;;;;;;;;;;;;17.94;53.09;100815.34;5089068;28;1066;-63
2023/08/21 07:39:58;;;;;;;;;;;;;;;17.96;53.17;100812.31;5091635;28;1308;-63
2023/08/21 07:42:23;;;;;;;;;;;;;;;17.90;53.28;100807.91;5094821;28;1263;-59
2023/08/21 07:44:49;;;;;;;;;;;;;;;18.01;53.14;100820.56;5093803;28;1155;-63
2023/08/21 07:47:15;;;;;;;;;;;;;;;17.96;53.18;100812.31;5090836;28;1362;-63
2023/08/21 07:49:40;;;;;;;;;;;;;;;18.01;53.15;100812.31;5092160;28;1261;-63
2023/08/21 07:52:06;;;;;;;;;;;;;;;18.00;53.12;100812.59;5091283;28;1981;-62
2023/08/21 07:54:31;;;;;;;;;;;;;;;17.99;53.27;100806.25;5093306;28;1406;-63
2023/08/21 07:56:57;;;;;;;;;;;;;;;17.99;52.96;100811.75;5096958;28;1184;-61
2023/08/21 07:59:22;;;;;;;;;;;;;;;18.00;53.04;100816.16;5091104;28;1265;-59
2023/08/21 08:01:48;;;;;;;;;;;;;;;18.04;53.27;100817.22;5096864;28;1401;-54
2023/08/21 08:04:14;;;;;;;;;;;;;;;18.03;53.05;100812.81;5095849;28;1170;-54
2023/08/21 08:06:39;;;;;;;;;;;;;;;18.04;52.99;100814.47;5098038;28;1240;-64
2023/08/21 08:09:05;;;;;;;;;;;;;;;18.04;53.02;100813.66;5085526;28;1102;-62
2023/08/21 08:11:30;;;;;;;;;;;;;;;18.04;53.22;100814.47;5091777;28;1976;-63
2023/08/21 08:13:56;;;;;;;;;;;;;;;18.04;53.36;100803.47;5092434;28;1131;-63
2023/08/21 08:16:21;;;;;;;;;;;;;;;18.09;53.25;100808.97;5094794;28;1062;-60
2023/08/21 08:18:47;;;;;;;;;;;;;;;18.11;52.97;100811.44;5085784;28;1081;-64
2023/08/21 08:21:12;;;;;;;;;;;;;;;18.12;53.06;100804.81;5076769;28;1020;-67
2023/08/21 08:23:38;;;;;;;;;;;;;;;18.10;53.14;100802.34;5093468;28;2073;-69
2023/08/21 08:26:03;;;;;;;;;;;;;;;18.14;53.18;100797.09;5075811;28;1162;-66
2023/08/21 08:28:29;;;;;;;;;;;;;;;18.13;53.19;100796.28;5089382;28;1011;-69
2023/08/21 08:30:54;;;;;;;;;;;;;;;18.16;52.95;100794.06;5097477;28;1980;-66
2023/08/21 08:33:20;;;;;;;;;;;;;;;18.13;53.40;100796.28;5095660;28;1264;-66
2023/08/21 08:35:45;;;;;;;;;;;;;;;18.15;53.24;100796.00;5093056;28;1280;-65
2023/08/21 08:38:11;;;;;;;;;;;;;;;18.19;53.12;100793.47;5091161;28;1115;-49
2023/08/21 08:40:37;;;;;;;;;;;;;;;18.21;53.28;100786.59;5097285;28;982;-54
2023/08/21 08:43:05;;;;;;;;;;;;;;;18.20;53.20;100792.38;5061760;28;1017;-55
2023/08/21 08:45:30;;;;;;;;;;;;;;;18.22;53.28;100785.50;5093014;28;1127;-54
2023/08/21 08:47:57;;;;;;;;;;;;;;;18.26;53.42;100788.50;5088407;28;1027;-55
2023/08/21 08:50:22;;;;;;;;;;;;;;;18.20;53.33;100770.38;5060002;28;1898;-55
2023/08/21 08:52:48;;;;;;;;;;;;;;;18.23;53.58;100778.88;5059519;28;2162;-53
2023/08/21 08:55:14;;;;;;;;;;;;;;;18.23;53.44;100773.38;5076190;28;1179;-55
2023/08/21 08:57:39;;;;;;;;;;;;;;;18.27;53.25;100770.88;5093983;28;1240;-56
2023/08/21 09:00:05;;;;;;;;;;;;;;;18.26;53.32;100766.50;5089584;28;1374;-57
2023/08/21 09:02:31;;;;;;;;;;;;;;;18.26;53.28;100766.50;5098016;28;1441;-55
2023/08/21 09:04:56;;;;;;;;;;;;;;;18.27;53.46;100768.13;5096837;28;1224;-54
2023/08/21 09:07:22;;;;;;;;;;;;;;;18.28;53.37;100765.06;5094075;28;1354;-49
2023/08/21 09:09:52;;;;;;;;;;;;;;;18.29;53.54;100757.66;5097841;28;1075;-51
2023/08/21 09:12:18;;;;;;;;;;;;;;;18.26;53.58;100766.50;5095052;28;1980;-50
2023/08/21 09:14:44;;;;;;;;;;;;;;;18.28;53.52;100767.00;5094644;28;1253;-52
2023/08/21 09:17:09;;;;;;;;;;;;;;;18.30;53.56;100775.81;5095890;28;1372;-46
2023/08/21 09:19:35;;;;;;;;;;;;;;;18.24;53.41;100766.78;5097610;28;1366;-54
2023/08/21 09:22:09;;;;;;;;;;;;;;;18.31;53.56;100763.69;5093489;28;1862;-54
2023/08/21 09:24:35;;;;;;;;;;;;;;;18.32;53.59;100759.84;5077569;28;1162;-55
2023/08/21 09:27:01;;;;;;;;;;;;;;;18.35;53.56;100763.94;5076986;28;1050;-48
2023/08/21 09:29:27;;;;;;;;;;;;;;;18.28;53.65;100756.81;5076497;28;1178;-52
2023/08/21 09:31:55;;;;;;;;;;;;;;;18.34;53.53;100756.78;5076938;28;1906;-54
2023/08/21 09:34:21;;;;;;;;;;;;;;;18.38;53.48;100760.63;5079602;28;1062;-52
2023/08/21 09:36:46;;;;;;;;;;;;;;;18.37;53.57;100767.22;5086990;28;1134;-50
2023/08/21 09:39:15;;;;;;;;;;;;;;;18.37;53.45;100762.56;5059038;28;1075;-49
2023/08/21 09:41:40;;;;;;;;;;;;;;;18.38;53.57;100758.69;5086605;28;1027;-48
2023/08/21 09:44:06;;;;;;;;;;;;;;;18.37;53.72;100751.56;5093683;28;1010;-56
2023/08/21 09:46:31;;;;;;;;;;;;;;;18.39;53.79;100743.00;5076795;28;1440;-52
2023/08/21 09:48:57;;;;;;;;;;;;;;;18.38;53.84;100749.59;5059195;28;1047;-56
2023/08/21 09:51:22;;;;;;;;;;;;;;;18.41;53.64;100752.63;5076237;28;1970;-50
2023/08/21 09:53:48;;;;;;;;;;;;;;;18.40;53.71;100750.97;5092514;28;2330;-54
2023/08/21 09:56:14;;;;;;;;;;;;;;;18.42;53.66;100742.41;5083786;28;1101;-53
2023/08/21 09:58:39;;;;;;;;;;;;;;;18.41;53.64;100738.00;5096468;28;1106;-52
2023/08/21 10:01:11;;;;;;;;;;;;;;;18.46;53.53;100741.56;5073555;28;1019;-52
2023/08/21 10:03:38;;;;;;;;;;;;;;;18.44;54.00;100742.97;5095660;28;1359;-51
2023/08/21 10:06:05;;;;;;;;;;;;;;;18.48;53.75;100744.00;5096474;28;1348;-53
2023/08/21 10:08:30;;;;;;;;;;;;;;;18.46;53.85;100733.28;5074183;28;975;-50
2023/08/21 10:10:56;;;;;;;;;;;;;;;18.45;54.08;100728.91;5068703;28;1954;-53
2023/08/21 10:13:22;;;;;;;;;;;;;;;18.49;53.77;100717.31;5077796;28;1360;-54
2023/08/21 10:15:47;;;;;;;;;;;;;;;18.46;53.83;100725.03;5077807;28;1120;-51
2023/08/21 10:18:26;;;;;;;;;;;;;;;18.51;53.83;100723.34;5086524;28;1058;-52
2023/08/21 10:20:52;;;;;;;;;;;;;;;18.49;54.00;100714.56;5095588;28;1321;-52
2023/08/21 10:23:24;;;;;;;;;;;;;;;18.49;53.78;100715.38;5082702;28;2102;-53
2023/08/21 10:25:53;;;;;;;;;;;;;;;18.49;54.13;100715.38;5084142;28;1332;-49
2023/08/21 10:28:19;;;;;;;;;;;;;;;18.49;53.72;100723.63;5096265;28;1295;-50
2023/08/21 10:30:44;;;;;;;;;;;;;;;18.54;53.89;100720.03;5077968;28;1910;-50
2023/08/21 10:33:10;;;;;;;;;;;;;;;18.50;53.75;100703.25;5094892;28;1177;-49
2023/08/21 10:35:36;;;;;;;;;;;;;;;18.55;53.84;100705.97;5070464;28;1097;-54
2023/08/21 10:38:10;;;;;;;;;;;;;;;18.51;53.88;100718.69;5070945;28;1116;-50
2023/08/21 10:40:35;;;;;;;;;;;;;;;18.56;53.96;100710.34;5082879;28;1154;-55
2023/08/21 10:43:02;;;;;;;;;;;;;;;18.56;54.01;100698.53;5090911;28;996;-53
2023/08/21 10:45:28;;;;;;;;;;;;;;;18.58;53.99;100694.38;5095079;28;1051;-50
2023/08/21 10:47:56;;;;;;;;;;;;;;;18.60;54.03;100702.34;5084314;28;1415;-53
2023/08/21 10:50:22;;;;;;;;;;;;;;;18.63;53.82;100702.59;5095411;28;1975;-52
2023/08/21 10:52:47;;;;;;;;;;;;;;;18.62;53.99;100700.97;5091841;28;1963;-52
2023/08/21 10:55:14;;;;;;;;;;;;;;;18.63;53.86;100701.75;5095733;28;1311;-54
2023/08/21 10:57:42;;;;;;;;;;;;;;;18.60;54.13;100688.59;5094743;28;1011;-54
2023/08/21 11:00:11;;;;;;;;;;;;;;;18.63;54.01;100693.50;5093649;28;999;-51
2023/08/21 11:02:37;;;;;;;;;;;;;;;18.62;54.06;100694.59;5091276;28;1146;-52
2023/08/21 11:05:03;;;;;;;;;;;;;;;18.65;53.86;100691.31;5095556;28;1324;-53
2023/08/21 11:07:28;;;;;;;;;;;;;;;18.66;54.07;100698.44;5094639;28;1406;-49
2023/08/21 11:09:54;;;;;;;;;;;;;;;18.64;54.01;100695.16;5095452;28;1228;-50
2023/08/21 11:12:20;;;;;;;;;;;;;;;18.70;54.03;100699.50;5092251;28;1984;-50
2023/08/21 11:14:46;;;;;;;;;;;;;;;18.69;54.09;100686.84;5086246;28;1284;-54
2023/08/21 11:17:11;;;;;;;;;;;;;;;18.71;54.04;100690.13;5094335;28;1268;-53
2023/08/21 11:19:37;;;;;;;;;;;;;;;18.72;53.87;100690.94;5082265;28;1091;-56
2023/08/21 11:22:06;;;;;;;;;;;;;;;18.74;53.86;100688.72;5093387;28;1776;-54
2023/08/21 11:24:37;;;;;;;;;;;;;;;18.73;54.10;100695.34;5094631;28;1066;-50
2023/08/21 11:27:06;;;;;;;;;;;;;;;18.74;53.93;100692.28;5096016;28;1027;-54
2023/08/21 11:29:52;;;;;;;;;;;;;;;18.74;54.13;100695.06;5096667;28;1130;-54
2023/08/21 11:32:18;;;;;;;;;;;;;;;18.75;54.29;100690.38;5096968;28;1906;-53
2023/08/21 11:34:55;;;;;;;;;;;;;;;18.72;54.21;100697.28;5088996;28;1344;-56
2023/08/21 11:37:22;;;;;;;;;;;;;;;18.72;54.21;100699.19;5097539;28;1201;-54
2023/08/21 11:39:48;;;;;;;;;;;;;;;18.72;54.36;100697.28;5092243;28;995;-52
2023/08/21 11:42:14;;;;;;;;;;;;;;;18.76;54.34;100697.50;5098440;28;1323;-52
2023/08/21 11:45:00;;;;;;;;;;;;;;;18.73;54.27;100704.44;5092145;28;1122;-53
2023/08/21 11:47:30;;;;;;;;;;;;;;;18.75;54.41;100706.91;5090405;28;1276;-49
2023/08/21 11:49:55;;;;;;;;;;;;;;;18.77;54.15;100702.72;5087068;28;995;-54
2023/08/21 11:52:24;;;;;;;;;;;;;;;18.76;54.31;100703.03;5094003;28;2397;-54
2023/08/21 11:54:50;;;;;;;;;;;;;;;18.67;54.67;100700.09;5097647;28;1006;-55
2023/08/21 11:57:16;;;;;;;;;;;;;;;18.75;54.20;100702.22;5099333;28;1272;-54
2023/08/21 11:59:41;;;;;;;;;;;;;;;18.75;54.40;100704.97;5087087;28;1110;-54
2023/08/21 12:02:23;;;;;;;;;;;;;;;18.70;54.43;100702.25;5098176;28;1010;-54
2023/08/21 12:04:55;;;;;;;;;;;;;;;18.76;54.54;100712.13;5080214;28;1063;-54
2023/08/21 12:07:20;;;;;;;;;;;;;;;18.73;54.63;100700.84;5092380;28;1236;-54
2023/08/21 12:09:47;;;;;;;;;;;;;;;18.78;54.47;100711.84;5098470;28;1071;-54
2023/08/21 12:12:12;;;;;;;;;;;;;;;18.76;54.49;100709.38;5096528;28;1917;-54
2023/08/21 12:14:39;;;;;;;;;;;;;;;18.75;54.49;100704.97;5093459;28;1166;-52
2023/08/21 12:17:04;;;;;;;;;;;;;;;18.75;54.39;100715.97;5078497;28;1027;-51
2023/08/21 12:19:30;;;;;;;;;;;;;;;18.78;54.34;100712.66;5094716;28;1008;-49
2023/08/21 12:21:58;;;;;;;;;;;;;;;18.78;54.52;100711.84;5094672;28;2314;-56
2023/08/21 12:24:23;;;;;;;;;;;;;;;18.78;54.72;100712.66;5080804;28;1062;-51
2023/08/21 12:26:49;;;;;;;;;;;;;;;18.76;54.58;100709.38;5097830;28;1189;-57
2023/08/21 12:29:14;;;;;;;;;;;;;;;18.74;54.84;100713.53;5098259;28;1130;-59
2023/08/21 12:31:40;;;;;;;;;;;;;;;18.75;54.45;100713.22;5097714;28;1909;-54
2023/08/21 12:34:06;;;;;;;;;;;;;;;18.75;54.79;100713.22;5090351;28;1288;-57
2023/08/21 12:36:33;;;;;;;;;;;;;;;18.77;54.46;100711.00;5095399;28;1192;-57
2023/08/21 12:38:59;;;;;;;;;;;;;;;18.73;54.82;100704.44;5088296;28;1367;-52
2023/08/21 12:41:25;;;;;;;;;;;;;;;18.75;54.81;100712.41;5095878;28;1366;-55
2023/08/21 12:43:50;;;;;;;;;;;;;;;18.74;54.78;100708.81;5094223;28;1378;-55